Drake Field
KFYV : now visible

Airfield :











YOU CAN JOIN US ON...

 
LOGIN :

Register | Disclaimer

   EN    FR    IT 

 









Legend :    VFR   Marginal VFR   IFR   Intensive IFR   Very Intensive IFR
Visi :
Ceiling :
>= 8 km
>= 3000ft
5 to 8 km
1000 to 3000 ft
1500m to 5 km
500 to 1000 ft
800 to 1500m
200 to 500 ft
< 800m
< 200 ft
Symbols :   Thunderstorms  Fog  Heavy snow  Heavy precipitations  Wind > 20 kt






- Airport Elevation : 1251 ft
- IATA code : FYV


KFYV - Drake Field

CURRENT METAR :
  • 282205Z 05004KT 2 1/2SM RA BR FEW006 OVC037 07/06 A2992 RMK AO2 P0002 T00670056

EXPIRED METARs :
  • 282146Z 05005KT 2 1/2SM RA BR FEW018 BKN022 OVC038 07/06 A2992 RMK AO2 P0007 T00720056
  • 282053Z 06004KT 3SM -RA BR BKN022 BKN031 OVC040 08/06 A2992 RMK AO2 SLP133 P0006 60009 T00780061 56020
  • 282042Z 06005KT 3SM RA BR BKN024 BKN030 OVC038 08/06 A2992 RMK AO2 P0005 T00780061
  • 281953Z 05004KT 7SM -RA FEW033 OVC041 09/06 A2993 RMK AO2 SLP138 P0003 T00890061

TAF KFYV
Valid from the 28 at 18:00 until the 29 at 18:00 UTC


281727Z 2818/2918 05007KT 6SM -RA SCT015 OVC050
TEMPO 2818/2822 3SM -RA BKN015
FM282200 06007KT 3SM -RA BR OVC012
FM290300 06005KT 2SM -RA BR OVC007
FM291500 03005KT P6SM OVC007



MET'MAP, your aeronautical weather chart ! - Copyright ORBIFLY December 2007 - Disclaimer

ORBIFLY MET'MAP TEAM :

Programming & Development : Alexandra Zaïnal
Concept & original design : Baudouin d'Aumeries
Assistance for programming : Marc-Olivier Méhu
Technical & hardware support : Manuel Goepfert

Contact : metmap@orbifly.com




SOURCES & CREDITS :

   NOAA       Earth
Advisory